Time,TemperatureF,DewpointF,PressureIn,WindDirection,WindDirectionDegrees,WindSpeedMPH,WindSpeedGustMPH,Humidity,HourlyPrecipIn,Conditions,Clouds,dailyrainin,SoftwareType,DateUTC
2013-09-15 00:00:00,75.2,70.7,29.98,NE,45,1.0,-999.0,86,0.00,,,0.00,Wunderground v.1.15,2013-09-15 10:00:00,
2013-09-15 00:05:00,75.2,70.7,29.98,NE,45,1.0,-999.0,86,0.00,,,0.00,Wunderground v.1.15,2013-09-15 10:05:00,
2013-09-15 00:10:00,75.2,70.7,29.98,NE,45,1.0,-999.0,86,0.00,,,0.00,Wunderground v.1.15,2013-09-15 10:10:00,
2013-09-15 00:15:00,75.2,70.7,29.98,NE,45,1.0,-999.0,86,0.00,,,0.00,Wunderground v.1.15,2013-09-15 10:15:00,
2013-09-15 00:20:00,75.2,70.7,29.98,NE,45,1.0,-999.0,86,0.00,,,0.00,Wunderground v.1.15,2013-09-15 10:20:00,
2013-09-15 00:25:00,75.2,70.7,29.98,NE,45,1.0,-999.0,86,0.00,,,0.00,Wunderground v.1.15,2013-09-15 10:25:00,
2013-09-15 00:30:00,75.2,70.7,29.98,NE,45,1.0,-999.0,86,0.00,,,0.00,Wunderground v.1.15,2013-09-15 10:30:00,
2013-09-15 00:35:00,75.2,70.7,29.98,NE,45,1.0,-999.0,86,0.00,,,0.00,Wunderground v.1.15,2013-09-15 10:35:00,
2013-09-15 00:40:00,75.2,70.7,29.98,NE,45,1.0,-999.0,86,0.00,,,0.00,Wunderground v.1.15,2013-09-15 10:40:00,
2013-09-15 00:45:00,75.3,71.2,29.97,NE,45,2.0,-999.0,87,0.00,,,0.00,Wunderground v.1.15,2013-09-15 10:45:00,
2013-09-15 00:50:00,75.3,71.2,29.97,NE,45,2.0,-999.0,87,0.00,,,0.00,Wunderground v.1.15,2013-09-15 10:50:00,
2013-09-15 00:55:00,75.3,71.2,29.97,NE,45,2.0,-999.0,87,0.00,,,0.00,Wunderground v.1.15,2013-09-15 10:55:00,
2013-09-15 01:00:00,75.3,71.2,29.97,NE,45,2.0,-999.0,87,0.00,,,0.00,Wunderground v.1.15,2013-09-15 11:00:00,
2013-09-15 01:05:00,75.3,71.2,29.97,NE,45,2.0,-999.0,87,0.00,,,0.00,Wunderground v.1.15,2013-09-15 11:05:00,
2013-09-15 01:10:00,75.3,71.2,29.97,NE,45,2.0,-999.0,87,0.00,,,0.00,Wunderground v.1.15,2013-09-15 11:10:00,
2013-09-15 01:15:00,75.1,70.6,29.97,NE,45,2.0,-999.0,86,0.00,,,0.00,Wunderground v.1.15,2013-09-15 11:15:00,
2013-09-15 01:20:00,75.1,70.6,29.97,NE,45,2.0,-999.0,86,0.00,,,0.00,Wunderground v.1.15,2013-09-15 11:20:00,
2013-09-15 01:25:00,75.1,70.6,29.97,NE,45,2.0,-999.0,86,0.00,,,0.00,Wunderground v.1.15,2013-09-15 11:25:00,
2013-09-15 01:30:00,75.1,70.6,29.97,NE,45,2.0,-999.0,86,0.00,,,0.00,Wunderground v.1.15,2013-09-15 11:30:00,
2013-09-15 01:35:00,75.1,70.6,29.97,NE,45,2.0,-999.0,86,0.00,,,0.00,Wunderground v.1.15,2013-09-15 11:35:00,
2013-09-15 01:40:00,75.1,70.6,29.97,NE,45,2.0,-999.0,86,0.00,,,0.00,Wunderground v.1.15,2013-09-15 11:40:00,
2013-09-15 01:45:00,75.0,70.2,29.97,NE,45,1.0,-999.0,85,0.00,,,0.00,Wunderground v.1.15,2013-09-15 11:45:00,
2013-09-15 01:50:00,75.0,70.2,29.97,NE,45,1.0,-999.0,85,0.00,,,0.00,Wunderground v.1.15,2013-09-15 11:50:00,
2013-09-15 01:55:00,75.0,70.2,29.97,NE,45,1.0,-999.0,85,0.00,,,0.00,Wunderground v.1.15,2013-09-15 11:55:00,
2013-09-15 02:00:00,75.0,70.2,29.97,NE,45,1.0,-999.0,85,0.00,,,0.00,Wunderground v.1.15,2013-09-15 12:00:00,
2013-09-15 02:05:00,75.0,70.2,29.97,NE,45,1.0,-999.0,85,0.00,,,0.00,Wunderground v.1.15,2013-09-15 12:05:00,
2013-09-15 02:10:00,75.0,70.2,29.97,NE,45,1.0,-999.0,85,0.00,,,0.00,Wunderground v.1.15,2013-09-15 12:10:00,
2013-09-15 02:15:00,75.1,69.9,29.96,NE,45,2.0,-999.0,84,0.00,,,0.00,Wunderground v.1.15,2013-09-15 12:15:00,
2013-09-15 02:20:00,75.1,69.9,29.96,NE,45,2.0,-999.0,84,0.00,,,0.00,Wunderground v.1.15,2013-09-15 12:20:00,
2013-09-15 02:25:00,75.1,69.9,29.96,NE,45,2.0,-999.0,84,0.00,,,0.00,Wunderground v.1.15,2013-09-15 12:25:00,
2013-09-15 02:30:00,75.1,69.9,29.96,NE,45,2.0,-999.0,84,0.00,,,0.00,Wunderground v.1.15,2013-09-15 12:30:00,
2013-09-15 02:35:00,75.1,69.9,29.96,NE,45,2.0,-999.0,84,0.00,,,0.00,Wunderground v.1.15,2013-09-15 12:35:00,
2013-09-15 02:40:00,75.1,69.9,29.96,NE,45,2.0,-999.0,84,0.00,,,0.00,Wunderground v.1.15,2013-09-15 12:40:00,
2013-09-15 02:45:00,75.3,69.4,29.96,NE,45,3.0,-999.0,82,0.00,,,0.00,Wunderground v.1.15,2013-09-15 12:45:00,
2013-09-15 02:50:00,75.3,69.4,29.96,NE,45,3.0,-999.0,82,0.00,,,0.00,Wunderground v.1.15,2013-09-15 12:50:00,
2013-09-15 02:55:00,75.3,69.4,29.96,NE,45,3.0,-999.0,82,0.00,,,0.00,Wunderground v.1.15,2013-09-15 12:55:00,
2013-09-15 03:00:00,75.3,69.4,29.96,NE,45,3.0,-999.0,82,0.00,,,0.00,Wunderground v.1.15,2013-09-15 13:00:00,
2013-09-15 03:05:00,75.3,69.4,29.96,NE,45,3.0,-999.0,82,0.00,,,0.00,Wunderground v.1.15,2013-09-15 13:05:00,
2013-09-15 03:10:00,75.3,69.4,29.96,NE,45,3.0,-999.0,82,0.00,,,0.00,Wunderground v.1.15,2013-09-15 13:10:00,
2013-09-15 03:15:00,75.4,69.2,29.96,NE,45,1.0,-999.0,81,0.00,,,0.00,Wunderground v.1.15,2013-09-15 13:15:00,
2013-09-15 03:20:00,75.4,69.2,29.96,NE,45,1.0,-999.0,81,0.00,,,0.00,Wunderground v.1.15,2013-09-15 13:20:00,
2013-09-15 03:25:00,75.4,69.2,29.96,NE,45,1.0,-999.0,81,0.00,,,0.00,Wunderground v.1.15,2013-09-15 13:25:00,
2013-09-15 03:30:00,75.4,69.2,29.96,NE,45,1.0,-999.0,81,0.00,,,0.00,Wunderground v.1.15,2013-09-15 13:30:00,
2013-09-15 03:35:00,75.4,69.2,29.96,NE,45,1.0,-999.0,81,0.00,,,0.00,Wunderground v.1.15,2013-09-15 13:35:00,
2013-09-15 03:40:00,75.4,69.2,29.96,NE,45,1.0,-999.0,81,0.00,,,0.00,Wunderground v.1.15,2013-09-15 13:40:00,
2013-09-15 03:45:00,74.8,66.3,29.96,NE,45,1.0,-999.0,75,0.00,,,0.00,Wunderground v.1.15,2013-09-15 13:45:00,
2013-09-15 03:50:00,74.8,66.3,29.96,NE,45,1.0,-999.0,75,0.00,,,0.00,Wunderground v.1.15,2013-09-15 13:50:00,
2013-09-15 03:55:00,74.8,66.3,29.96,NE,45,1.0,-999.0,75,0.00,,,0.00,Wunderground v.1.15,2013-09-15 13:55:00,
2013-09-15 04:00:00,74.8,66.3,29.96,NE,45,1.0,-999.0,75,0.00,,,0.00,Wunderground v.1.15,2013-09-15 14:00:00,
2013-09-15 04:05:00,74.8,66.3,29.96,NE,45,1.0,-999.0,75,0.00,,,0.00,Wunderground v.1.15,2013-09-15 14:05:00,
2013-09-15 04:10:00,74.8,66.3,29.96,NE,45,1.0,-999.0,75,0.00,,,0.00,Wunderground v.1.15,2013-09-15 14:10:00,
2013-09-15 04:15:00,75.3,66.4,29.96,NE,45,1.0,-999.0,74,0.00,,,0.00,Wunderground v.1.15,2013-09-15 14:15:00,
2013-09-15 04:20:00,75.3,66.4,29.96,NE,45,1.0,-999.0,74,0.00,,,0.00,Wunderground v.1.15,2013-09-15 14:20:00,
2013-09-15 04:25:00,75.3,66.4,29.96,NE,45,1.0,-999.0,74,0.00,,,0.00,Wunderground v.1.15,2013-09-15 14:25:00,
2013-09-15 04:30:00,75.3,66.4,29.96,NE,45,1.0,-999.0,74,0.00,,,0.00,Wunderground v.1.15,2013-09-15 14:30:00,
2013-09-15 04:35:00,75.3,66.4,29.96,NE,45,1.0,-999.0,74,0.00,,,0.00,Wunderground v.1.15,2013-09-15 14:35:00,
2013-09-15 04:40:00,75.3,66.4,29.96,NE,45,1.0,-999.0,74,0.00,,,0.00,Wunderground v.1.15,2013-09-15 14:40:00,
2013-09-15 04:45:00,75.8,66.5,29.97,NE,45,1.0,-999.0,73,0.00,,,0.00,Wunderground v.1.15,2013-09-15 14:45:00,
2013-09-15 04:50:00,75.8,66.5,29.97,NE,45,1.0,-999.0,73,0.00,,,0.00,Wunderground v.1.15,2013-09-15 14:50:00,
2013-09-15 04:55:00,75.8,66.5,29.97,NE,45,1.0,-999.0,73,0.00,,,0.00,Wunderground v.1.15,2013-09-15 14:55:00,
2013-09-15 05:00:00,75.8,66.5,29.97,NE,45,1.0,-999.0,73,0.00,,,0.00,Wunderground v.1.15,2013-09-15 15:00:00,
2013-09-15 05:05:00,75.8,66.5,29.97,NE,45,1.0,-999.0,73,0.00,,,0.00,Wunderground v.1.15,2013-09-15 15:05:00,
2013-09-15 05:10:00,75.8,66.5,29.97,NE,45,1.0,-999.0,73,0.00,,,0.00,Wunderground v.1.15,2013-09-15 15:10:00,
2013-09-15 05:15:00,76.3,67.8,29.97,East,90,1.0,-999.0,75,0.00,,,0.00,Wunderground v.1.15,2013-09-15 15:15:00,
2013-09-15 05:20:00,76.3,67.8,29.97,East,90,1.0,-999.0,75,0.00,,,0.00,Wunderground v.1.15,2013-09-15 15:20:00,
2013-09-15 05:25:00,76.3,67.8,29.97,East,90,1.0,-999.0,75,0.00,,,0.00,Wunderground v.1.15,2013-09-15 15:25:00,
2013-09-15 05:30:00,76.3,67.8,29.97,East,90,1.0,-999.0,75,0.00,,,0.00,Wunderground v.1.15,2013-09-15 15:30:00,
2013-09-15 05:35:00,76.3,67.8,29.97,East,90,1.0,-999.0,75,0.00,,,0.00,Wunderground v.1.15,2013-09-15 15:35:00,
2013-09-15 05:40:00,76.3,67.8,29.97,East,90,1.0,-999.0,75,0.00,,,0.00,Wunderground v.1.15,2013-09-15 15:40:00,
2013-09-15 05:45:00,76.2,68.8,29.98,East,90,3.0,-999.0,78,0.00,,,0.00,Wunderground v.1.15,2013-09-15 15:45:00,
2013-09-15 05:50:00,76.2,68.8,29.98,East,90,3.0,-999.0,78,0.00,,,0.00,Wunderground v.1.15,2013-09-15 15:50:00,
2013-09-15 05:55:00,76.2,68.8,29.98,East,90,3.0,-999.0,78,0.00,,,0.00,Wunderground v.1.15,2013-09-15 15:55:00,
2013-09-15 06:00:00,76.2,68.8,29.98,East,90,3.0,-999.0,78,0.00,,,0.00,Wunderground v.1.15,2013-09-15 16:00:00,
2013-09-15 06:05:00,76.2,68.8,29.98,East,90,3.0,-999.0,78,0.00,,,0.00,Wunderground v.1.15,2013-09-15 16:05:00,
2013-09-15 06:10:00,76.2,68.8,29.98,East,90,3.0,-999.0,78,0.00,,,0.00,Wunderground v.1.15,2013-09-15 16:10:00,
2013-09-15 06:15:00,76.3,67.4,29.98,East,90,2.0,-999.0,74,0.00,,,0.00,Wunderground v.1.15,2013-09-15 16:15:00,
2013-09-15 06:20:00,76.3,67.4,29.98,East,90,2.0,-999.0,74,0.00,,,0.00,Wunderground v.1.15,2013-09-15 16:20:00,
2013-09-15 06:25:00,76.3,67.4,29.98,East,90,2.0,-999.0,74,0.00,,,0.00,Wunderground v.1.15,2013-09-15 16:25:00,
2013-09-15 06:30:00,76.3,67.4,29.98,East,90,2.0,-999.0,74,0.00,,,0.00,Wunderground v.1.15,2013-09-15 16:30:00,
2013-09-15 06:35:00,76.3,67.4,29.98,East,90,2.0,-999.0,74,0.00,,,0.00,Wunderground v.1.15,2013-09-15 16:35:00,
2013-09-15 06:40:00,76.3,67.4,29.98,East,90,2.0,-999.0,74,0.00,,,0.00,Wunderground v.1.15,2013-09-15 16:40:00,
2013-09-15 06:45:00,76.8,66.7,30.00,East,90,3.0,-999.0,71,0.00,,,0.00,Wunderground v.1.15,2013-09-15 16:45:00,
2013-09-15 06:50:00,76.8,66.7,30.00,East,90,3.0,-999.0,71,0.00,,,0.00,Wunderground v.1.15,2013-09-15 16:50:00,
2013-09-15 06:55:00,76.8,66.7,30.00,East,90,3.0,-999.0,71,0.00,,,0.00,Wunderground v.1.15,2013-09-15 16:55:00,
2013-09-15 07:00:00,76.8,66.7,30.00,East,90,3.0,-999.0,71,0.00,,,0.00,Wunderground v.1.15,2013-09-15 17:00:00,
2013-09-15 07:05:00,76.8,66.7,30.00,East,90,3.0,-999.0,71,0.00,,,0.00,Wunderground v.1.15,2013-09-15 17:05:00,
2013-09-15 07:10:00,76.8,66.7,30.00,East,90,3.0,-999.0,71,0.00,,,0.00,Wunderground v.1.15,2013-09-15 17:10:00,
2013-09-15 07:15:00,77.8,66.0,30.00,East,90,3.0,-999.0,67,0.00,,,0.00,Wunderground v.1.15,2013-09-15 17:15:00,
2013-09-15 07:20:00,77.8,66.0,30.00,East,90,3.0,-999.0,67,0.00,,,0.00,Wunderground v.1.15,2013-09-15 17:20:00,
2013-09-15 07:25:00,77.8,66.0,30.00,East,90,3.0,-999.0,67,0.00,,,0.00,Wunderground v.1.15,2013-09-15 17:25:00,
2013-09-15 07:30:00,77.8,66.0,30.00,East,90,3.0,-999.0,67,0.00,,,0.00,Wunderground v.1.15,2013-09-15 17:30:00,
2013-09-15 07:35:00,77.8,66.0,30.00,East,90,3.0,-999.0,67,0.00,,,0.00,Wunderground v.1.15,2013-09-15 17:35:00,
2013-09-15 07:40:00,77.8,66.0,30.00,East,90,3.0,-999.0,67,0.00,,,0.00,Wunderground v.1.15,2013-09-15 17:40:00,
2013-09-15 07:45:00,80.2,67.4,30.01,NE,45,4.0,-999.0,65,0.00,,,0.00,Wunderground v.1.15,2013-09-15 17:45:00,
2013-09-15 07:50:00,80.2,67.4,30.01,NE,45,4.0,-999.0,65,0.00,,,0.00,Wunderground v.1.15,2013-09-15 17:50:00,
2013-09-15 07:55:00,80.2,67.4,30.01,NE,45,4.0,-999.0,65,0.00,,,0.00,Wunderground v.1.15,2013-09-15 17:55:00,
2013-09-15 08:00:00,80.2,67.4,30.01,NE,45,4.0,-999.0,65,0.00,,,0.00,Wunderground v.1.15,2013-09-15 18:00:00,
2013-09-15 08:05:00,80.2,67.4,30.01,NE,45,4.0,-999.0,65,0.00,,,0.00,Wunderground v.1.15,2013-09-15 18:05:00,
2013-09-15 08:10:00,80.2,67.4,30.01,NE,45,4.0,-999.0,65,0.00,,,0.00,Wunderground v.1.15,2013-09-15 18:10:00,
2013-09-15 08:15:00,82.3,67.0,30.01,NE,45,5.0,-999.0,60,0.00,,,0.00,Wunderground v.1.15,2013-09-15 18:15:00,
2013-09-15 08:20:00,82.3,67.0,30.01,NE,45,5.0,-999.0,60,0.00,,,0.00,Wunderground v.1.15,2013-09-15 18:20:00,
2013-09-15 08:25:00,82.3,67.0,30.01,NE,45,5.0,-999.0,60,0.00,,,0.00,Wunderground v.1.15,2013-09-15 18:25:00,
2013-09-15 08:30:00,82.3,67.0,30.01,NE,45,5.0,-999.0,60,0.00,,,0.00,Wunderground v.1.15,2013-09-15 18:30:00,
2013-09-15 08:35:00,82.3,67.0,30.01,NE,45,5.0,-999.0,60,0.00,,,0.00,Wunderground v.1.15,2013-09-15 18:35:00,
2013-09-15 08:40:00,82.3,67.0,30.01,NE,45,5.0,-999.0,60,0.00,,,0.00,Wunderground v.1.15,2013-09-15 18:40:00,
2013-09-15 08:45:00,84.4,67.5,30.02,NE,45,5.0,-999.0,57,0.00,,,0.00,Wunderground v.1.15,2013-09-15 18:45:00,
2013-09-15 08:50:00,84.4,67.5,30.02,NE,45,5.0,-999.0,57,0.00,,,0.00,Wunderground v.1.15,2013-09-15 18:50:00,
2013-09-15 08:55:00,84.4,67.5,30.02,NE,45,5.0,-999.0,57,0.00,,,0.00,Wunderground v.1.15,2013-09-15 18:55:00,
2013-09-15 09:00:00,84.4,67.5,30.02,NE,45,5.0,-999.0,57,0.00,,,0.00,Wunderground v.1.15,2013-09-15 19:00:00,
2013-09-15 18:00:00,83.9,69.0,30.00,NE,45,3.0,-999.0,61,0.00,,,0.00,Wunderground v.1.15,2013-09-16 04:00:00,
2013-09-15 18:05:00,83.9,69.0,30.00,NE,45,3.0,-999.0,61,0.00,,,0.00,Wunderground v.1.15,2013-09-16 04:05:00,
2013-09-15 18:10:00,83.9,69.0,30.00,NE,45,3.0,-999.0,61,0.00,,,0.00,Wunderground v.1.15,2013-09-16 04:10:00,
2013-09-15 18:15:00,81.8,70.2,30.01,ENE,68,3.0,-999.0,68,0.00,,,0.00,Wunderground v.1.15,2013-09-16 04:15:00,
2013-09-15 18:20:00,81.8,70.2,30.01,ENE,68,3.0,-999.0,68,0.00,,,0.00,Wunderground v.1.15,2013-09-16 04:20:00,
2013-09-15 18:25:00,81.8,70.2,30.01,ENE,68,3.0,-999.0,68,0.00,,,0.00,Wunderground v.1.15,2013-09-16 04:25:00,
2013-09-15 18:30:00,81.8,70.2,30.01,ENE,68,3.0,-999.0,68,0.00,,,0.00,Wunderground v.1.15,2013-09-16 04:30:00,
2013-09-15 18:35:00,81.8,70.2,30.01,ENE,68,3.0,-999.0,68,0.00,,,0.00,Wunderground v.1.15,2013-09-16 04:35:00,
2013-09-15 18:40:00,81.8,70.2,30.01,ENE,68,3.0,-999.0,68,0.00,,,0.00,Wunderground v.1.15,2013-09-16 04:40:00,
2013-09-15 18:45:00,79.7,69.9,30.02,ENE,68,2.0,-999.0,72,0.00,,,0.00,Wunderground v.1.15,2013-09-16 04:45:00,
2013-09-15 18:50:00,79.7,69.9,30.02,ENE,68,2.0,-999.0,72,0.00,,,0.00,Wunderground v.1.15,2013-09-16 04:50:00,
2013-09-15 18:55:00,79.7,69.9,30.02,ENE,68,2.0,-999.0,72,0.00,,,0.00,Wunderground v.1.15,2013-09-16 04:55:00,
2013-09-15 19:00:00,79.7,69.9,30.02,ENE,68,2.0,-999.0,72,0.00,,,0.00,Wunderground v.1.15,2013-09-16 05:00:00,
2013-09-15 19:05:00,79.7,69.9,30.02,ENE,68,2.0,-999.0,72,0.00,,,0.00,Wunderground v.1.15,2013-09-16 05:05:00,
2013-09-15 19:10:00,79.7,69.9,30.02,ENE,68,2.0,-999.0,72,0.00,,,0.00,Wunderground v.1.15,2013-09-16 05:10:00,
2013-09-15 19:15:00,78.8,69.8,30.02,ENE,68,3.0,-999.0,74,0.00,,,0.00,Wunderground v.1.15,2013-09-16 05:15:00,
2013-09-15 19:20:00,78.8,69.8,30.02,ENE,68,3.0,-999.0,74,0.00,,,0.00,Wunderground v.1.15,2013-09-16 05:20:00,
2013-09-15 19:25:00,78.8,69.8,30.02,ENE,68,3.0,-999.0,74,0.00,,,0.00,Wunderground v.1.15,2013-09-16 05:25:00,
2013-09-15 19:30:00,78.8,69.8,30.02,ENE,68,3.0,-999.0,74,0.00,,,0.00,Wunderground v.1.15,2013-09-16 05:30:00,
2013-09-15 19:35:00,78.8,69.8,30.02,ENE,68,3.0,-999.0,74,0.00,,,0.00,Wunderground v.1.15,2013-09-16 05:35:00,
2013-09-15 19:40:00,78.8,69.8,30.02,ENE,68,3.0,-999.0,74,0.00,,,0.00,Wunderground v.1.15,2013-09-16 05:40:00,
2013-09-15 19:45:00,78.4,69.4,30.02,ENE,68,4.0,-999.0,74,0.00,,,0.00,Wunderground v.1.15,2013-09-16 05:45:00,
2013-09-15 19:50:00,78.4,69.4,30.02,ENE,68,4.0,-999.0,74,0.00,,,0.00,Wunderground v.1.15,2013-09-16 05:50:00,
2013-09-15 19:55:00,78.4,69.4,30.02,ENE,68,4.0,-999.0,74,0.00,,,0.00,Wunderground v.1.15,2013-09-16 05:55:00,
2013-09-15 20:00:00,78.4,69.4,30.02,ENE,68,4.0,-999.0,74,0.00,,,0.00,Wunderground v.1.15,2013-09-16 06:00:00,
2013-09-15 20:05:00,78.4,69.4,30.02,ENE,68,4.0,-999.0,74,0.00,,,0.00,Wunderground v.1.15,2013-09-16 06:05:00,
2013-09-15 20:10:00,78.4,69.4,30.02,ENE,68,4.0,-999.0,74,0.00,,,0.00,Wunderground v.1.15,2013-09-16 06:10:00,
2013-09-15 20:15:00,78.0,69.0,30.03,NE,45,3.0,-999.0,74,0.00,,,0.00,Wunderground v.1.15,2013-09-16 06:15:00,
2013-09-15 20:20:00,78.0,69.0,30.03,NE,45,3.0,-999.0,74,0.00,,,0.00,Wunderground v.1.15,2013-09-16 06:20:00,
2013-09-15 20:25:00,78.0,69.0,30.03,NE,45,3.0,-999.0,74,0.00,,,0.00,Wunderground v.1.15,2013-09-16 06:25:00,
2013-09-15 20:30:00,78.0,69.0,30.03,NE,45,3.0,-999.0,74,0.00,,,0.00,Wunderground v.1.15,2013-09-16 06:30:00,
2013-09-15 20:35:00,78.0,69.0,30.03,NE,45,3.0,-999.0,74,0.00,,,0.00,Wunderground v.1.15,2013-09-16 06:35:00,
2013-09-15 20:40:00,78.0,69.0,30.03,NE,45,3.0,-999.0,74,0.00,,,0.00,Wunderground v.1.15,2013-09-16 06:40:00,
2013-09-15 20:45:00,77.9,69.7,30.04,ENE,68,3.0,-999.0,76,0.00,,,0.00,Wunderground v.1.15,2013-09-16 06:45:00,
2013-09-15 20:50:00,77.9,69.7,30.04,ENE,68,3.0,-999.0,76,0.00,,,0.00,Wunderground v.1.15,2013-09-16 06:50:00,
2013-09-15 20:55:00,77.9,69.7,30.04,ENE,68,3.0,-999.0,76,0.00,,,0.00,Wunderground v.1.15,2013-09-16 06:55:00,
2013-09-15 21:00:00,77.9,69.7,30.04,ENE,68,3.0,-999.0,76,0.00,,,0.00,Wunderground v.1.15,2013-09-16 07:00:00,
2013-09-15 21:05:00,77.9,69.7,30.04,ENE,68,3.0,-999.0,76,0.00,,,0.00,Wunderground v.1.15,2013-09-16 07:05:00,
2013-09-15 21:10:00,77.9,69.7,30.04,ENE,68,3.0,-999.0,76,0.00,,,0.00,Wunderground v.1.15,2013-09-16 07:10:00,
2013-09-15 21:15:00,77.7,69.5,30.04,NE,45,3.0,-999.0,76,0.00,,,0.00,Wunderground v.1.15,2013-09-16 07:15:00,
2013-09-15 21:20:00,77.7,69.5,30.04,NE,45,3.0,-999.0,76,0.00,,,0.00,Wunderground v.1.15,2013-09-16 07:20:00,
2013-09-15 21:25:00,77.7,69.5,30.04,NE,45,3.0,-999.0,76,0.00,,,0.00,Wunderground v.1.15,2013-09-16 07:25:00,
2013-09-15 21:30:00,77.7,69.5,30.04,NE,45,3.0,-999.0,76,0.00,,,0.00,Wunderground v.1.15,2013-09-16 07:30:00,
2013-09-15 21:35:00,77.7,69.5,30.04,NE,45,3.0,-999.0,76,0.00,,,0.00,Wunderground v.1.15,2013-09-16 07:35:00,
2013-09-15 21:40:00,77.7,69.5,30.04,NE,45,3.0,-999.0,76,0.00,,,0.00,Wunderground v.1.15,2013-09-16 07:40:00,
2013-09-15 21:45:00,77.5,69.7,30.04,NE,45,4.0,-999.0,77,0.00,,,0.00,Wunderground v.1.15,2013-09-16 07:45:00,
2013-09-15 21:50:00,77.5,69.7,30.04,NE,45,4.0,-999.0,77,0.00,,,0.00,Wunderground v.1.15,2013-09-16 07:50:00,
2013-09-15 22:00:00,77.5,69.7,30.04,NE,44,6.0,6.0,77,0.00,,,0.00,Wunderground v.1.15,2013-09-16 08:00:00,
2013-09-15 22:03:00,77.5,69.7,30.04,NE,45,4.0,-999.0,77,0.00,,,0.00,Wunderground v.1.15,2013-09-16 08:03:00,
2013-09-15 22:05:00,77.5,69.7,30.04,NE,45,4.0,-999.0,77,0.00,,,0.00,Wunderground v.1.15,2013-09-16 08:05:00,
2013-09-15 22:10:00,77.5,69.7,30.04,NE,45,4.0,-999.0,77,0.00,,,0.00,Wunderground v.1.15,2013-09-16 08:10:00,
2013-09-15 22:15:00,77.5,69.3,30.04,NE,45,4.0,-999.0,76,0.00,,,0.00,Wunderground v.1.15,2013-09-16 08:15:00,
2013-09-15 22:20:00,77.5,69.3,30.04,NE,45,4.0,-999.0,76,0.00,,,0.00,Wunderground v.1.15,2013-09-16 08:20:00,
2013-09-15 22:25:00,77.5,69.3,30.04,NE,45,4.0,-999.0,76,0.00,,,0.00,Wunderground v.1.15,2013-09-16 08:25:00,
2013-09-15 22:30:00,77.5,69.3,30.04,NE,45,4.0,-999.0,76,0.00,,,0.00,Wunderground v.1.15,2013-09-16 08:30:00,
2013-09-15 22:35:00,77.5,69.3,30.04,NE,45,4.0,-999.0,76,0.00,,,0.00,Wunderground v.1.15,2013-09-16 08:35:00,
2013-09-15 22:40:00,77.5,69.3,30.04,NE,45,4.0,-999.0,76,0.00,,,0.00,Wunderground v.1.15,2013-09-16 08:40:00,
2013-09-15 22:45:00,77.2,69.0,30.04,ENE,68,3.0,-999.0,76,0.00,,,0.00,Wunderground v.1.15,2013-09-16 08:45:00,
2013-09-15 22:50:00,77.2,69.0,30.04,ENE,68,3.0,-999.0,76,0.00,,,0.00,Wunderground v.1.15,2013-09-16 08:50:00,
2013-09-15 22:55:00,77.2,69.0,30.04,ENE,68,3.0,-999.0,76,0.00,,,0.00,Wunderground v.1.15,2013-09-16 08:55:00,
2013-09-15 23:00:00,77.2,69.0,30.04,ENE,68,3.0,-999.0,76,0.00,,,0.00,Wunderground v.1.15,2013-09-16 09:00:00,
2013-09-15 23:05:00,77.2,69.0,30.04,ENE,68,3.0,-999.0,76,0.00,,,0.00,Wunderground v.1.15,2013-09-16 09:05:00,
2013-09-15 23:10:00,77.2,69.0,30.04,ENE,68,3.0,-999.0,76,0.00,,,0.00,Wunderground v.1.15,2013-09-16 09:10:00,
2013-09-15 23:15:00,76.6,69.2,30.05,NE,45,2.0,-999.0,78,0.00,,,0.00,Wunderground v.1.15,2013-09-16 09:15:00,
2013-09-15 23:20:00,76.6,69.2,30.05,NE,45,2.0,-999.0,78,0.00,,,0.00,Wunderground v.1.15,2013-09-16 09:20:00,
2013-09-15 23:25:00,76.6,69.2,30.05,NE,45,2.0,-999.0,78,0.00,,,0.00,Wunderground v.1.15,2013-09-16 09:25:00,
2013-09-15 23:30:00,76.6,69.2,30.05,NE,45,2.0,-999.0,78,0.00,,,0.00,Wunderground v.1.15,2013-09-16 09:30:00,
2013-09-15 23:35:00,76.6,69.2,30.05,NE,45,2.0,-999.0,78,0.00,,,0.00,Wunderground v.1.15,2013-09-16 09:35:00,
2013-09-15 23:40:00,76.6,69.2,30.05,NE,45,2.0,-999.0,78,0.00,,,0.00,Wunderground v.1.15,2013-09-16 09:40:00,
2013-09-15 23:45:00,76.5,68.7,30.05,NE,45,2.0,-999.0,77,0.00,,,0.00,Wunderground v.1.15,2013-09-16 09:45:00,
2013-09-15 23:50:00,76.5,68.7,30.05,NE,45,2.0,-999.0,77,0.00,,,0.00,Wunderground v.1.15,2013-09-16 09:50:00,
2013-09-15 23:55:00,76.5,68.7,30.05,NE,45,2.0,-999.0,77,0.00,,,0.00,Wunderground v.1.15,2013-09-16 09:55:00,